createdAt,value
2023-05-07T00:01:24.019Z,18.20
2023-05-07T00:03:50.798Z,15.25
2023-05-07T00:06:18.091Z,14.73
2023-05-07T00:08:44.727Z,17.05
2023-05-07T00:11:11.531Z,14.60
2023-05-07T00:13:38.178Z,16.13
2023-05-07T00:16:05.449Z,15.05
2023-05-07T00:18:32.230Z,15.73
2023-05-07T00:20:58.996Z,13.82
2023-05-07T00:23:25.674Z,15.38
2023-05-07T00:25:52.255Z,16.02
2023-05-07T00:28:18.884Z,16.00
2023-05-07T00:30:45.575Z,17.50
2023-05-07T00:33:12.262Z,15.27
2023-05-07T00:35:38.890Z,14.75
2023-05-07T00:38:05.697Z,16.52
2023-05-07T00:40:32.402Z,16.20
2023-05-07T00:42:59.610Z,17.75
2023-05-07T00:45:29.879Z,14.73
2023-05-07T00:47:58.307Z,16.17
2023-05-07T00:50:25.222Z,15.15
2023-05-07T00:52:52.026Z,14.77
2023-05-07T00:55:19.032Z,14.57
2023-05-07T00:57:46.194Z,16.90
2023-05-07T01:00:13.916Z,16.88
2023-05-07T01:02:41.527Z,15.15
2023-05-07T01:05:19.915Z,14.25
2023-05-07T01:07:48.157Z,17.00
2023-05-07T01:10:15.859Z,15.80
2023-05-07T01:12:43.605Z,17.02
2023-05-07T01:15:11.082Z,16.25
2023-05-07T01:17:42.582Z,16.13
2023-05-07T01:20:11.365Z,14.95
2023-05-07T01:22:39.562Z,14.98
2023-05-07T01:25:08.330Z,14.93
2023-05-07T01:27:37.121Z,15.82
2023-05-07T01:30:07.840Z,17.30
2023-05-07T01:32:43.381Z,13.65
2023-05-07T01:35:14.912Z,15.95
2023-05-07T01:37:42.384Z,15.07
2023-05-07T01:40:09.811Z,14.90
2023-05-07T01:42:37.202Z,19.63
2023-05-07T01:45:04.121Z,14.55
2023-05-07T01:47:31.377Z,16.42
2023-05-07T01:49:59.009Z,15.48
2023-05-07T01:52:26.054Z,17.92
2023-05-07T01:54:52.730Z,15.98
2023-05-07T01:57:19.397Z,14.65
2023-05-07T01:59:46.308Z,15.43
2023-05-07T02:02:13.031Z,16.88
2023-05-07T02:04:39.838Z,15.93
2023-05-07T02:07:06.445Z,17.08
2023-05-07T02:09:33.108Z,14.60
2023-05-07T02:11:59.697Z,15.70
2023-05-07T02:14:26.997Z,15.95
2023-05-07T02:16:53.684Z,15.27
2023-05-07T02:19:22.063Z,14.63
2023-05-07T02:21:49.082Z,14.52
2023-05-07T02:24:15.901Z,17.58
2023-05-07T02:26:42.524Z,16.17
2023-05-07T02:29:09.214Z,17.73
2023-05-07T02:31:35.948Z,17.77
2023-05-07T02:34:02.917Z,16.27
2023-05-07T02:36:29.609Z,14.95
2023-05-07T02:38:56.357Z,15.88
2023-05-07T02:41:22.973Z,17.77
2023-05-07T02:43:49.647Z,16.90
2023-05-07T02:46:16.824Z,15.15
2023-05-07T02:48:43.946Z,15.40
2023-05-07T02:51:10.639Z,17.48
2023-05-07T02:53:37.720Z,15.77
2023-05-07T02:56:04.584Z,15.10
2023-05-07T02:58:31.302Z,14.57
2023-05-07T03:00:58.220Z,14.27
2023-05-07T03:03:25.047Z,14.65
2023-05-07T03:05:51.760Z,13.90
2023-05-07T03:08:18.488Z,12.07
2023-05-07T03:10:45.213Z,14.25
2023-05-07T03:13:12.009Z,13.48
2023-05-07T03:15:38.870Z,12.63
2023-05-07T03:18:05.663Z,13.07
2023-05-07T03:20:32.436Z,13.57
2023-05-07T03:22:59.295Z,13.73
2023-05-07T03:25:26.045Z,13.88
2023-05-07T03:27:52.764Z,12.77
2023-05-07T03:30:19.896Z,13.68
2023-05-07T03:32:46.718Z,14.27
2023-05-07T03:35:13.592Z,13.30
2023-05-07T03:37:40.687Z,15.20
2023-05-07T03:40:09.080Z,12.52
2023-05-07T03:42:35.869Z,12.73
2023-05-07T03:45:02.664Z,14.48
2023-05-07T03:47:29.318Z,12.52
2023-05-07T03:49:56.734Z,12.30
2023-05-07T03:52:26.772Z,13.43
2023-05-07T03:54:54.450Z,13.80
2023-05-07T03:57:21.410Z,13.95
2023-05-07T03:59:48.025Z,14.80
2023-05-07T04:02:14.708Z,14.25
2023-05-07T04:04:41.430Z,12.23
2023-05-07T04:07:08.401Z,13.90
2023-05-07T04:09:35.094Z,12.48
2023-05-07T04:12:02.322Z,12.27
2023-05-07T04:14:29.051Z,12.77
2023-05-07T04:16:55.772Z,14.02
2023-05-07T04:19:22.497Z,12.07
2023-05-07T04:21:49.079Z,14.07
2023-05-07T04:24:15.746Z,12.73
2023-05-07T04:26:42.530Z,14.23
2023-05-07T04:29:09.157Z,13.07
2023-05-07T04:31:35.745Z,13.85
2023-05-07T04:34:02.672Z,13.25
2023-05-07T04:36:30.077Z,13.50
2023-05-07T04:38:56.735Z,13.77
2023-05-07T04:41:23.352Z,12.20
2023-05-07T04:43:50.054Z,11.77
2023-05-07T04:46:16.912Z,10.23
2023-05-07T04:48:43.561Z,10.43
2023-05-07T04:51:10.263Z,15.57
2023-05-07T04:53:36.954Z,11.40
2023-05-07T04:56:03.707Z,14.10
2023-05-07T04:58:32.664Z,11.73
2023-05-07T05:01:00.433Z,14.05
2023-05-07T05:03:27.362Z,14.48
2023-05-07T05:05:54.121Z,12.48
2023-05-07T05:08:20.879Z,11.60
2023-05-07T05:10:49.621Z,11.93
2023-05-07T05:13:16.487Z,9.57
2023-05-07T05:15:43.472Z,11.10
2023-05-07T05:18:10.168Z,11.15
2023-05-07T05:20:36.945Z,10.95
2023-05-07T05:23:03.652Z,9.70
2023-05-07T05:25:30.863Z,11.07
2023-05-07T05:27:57.909Z,11.13
2023-05-07T05:30:25.122Z,12.18
2023-05-07T05:32:52.237Z,10.77
2023-05-07T05:35:19.361Z,11.13
2023-05-07T05:37:46.414Z,8.13
2023-05-07T05:40:13.771Z,9.70
2023-05-07T05:42:40.879Z,11.15
2023-05-07T05:45:08.260Z,8.95
2023-05-07T05:47:35.324Z,8.45
2023-05-07T05:50:02.077Z,10.70
2023-05-07T05:52:29.164Z,11.82
2023-05-07T05:54:56.413Z,8.98
2023-05-07T05:57:23.596Z,10.85
2023-05-07T05:59:50.294Z,8.93
2023-05-07T06:02:17.395Z,10.45
2023-05-07T06:04:44.575Z,11.57
2023-05-07T06:07:12.372Z,9.50
2023-05-07T06:09:39.386Z,9.18
2023-05-07T06:12:06.857Z,10.43
2023-05-07T06:14:33.988Z,10.05
2023-05-07T06:17:01.358Z,10.77
2023-05-07T06:19:29.119Z,8.07
2023-05-07T06:21:57.490Z,7.88
2023-05-07T06:24:24.802Z,9.02
2023-05-07T06:26:51.472Z,8.55
2023-05-07T06:29:18.565Z,8.55
2023-05-07T06:31:45.386Z,10.07
2023-05-07T06:34:15.081Z,8.50
2023-05-07T06:36:42.602Z,9.68
2023-05-07T06:39:09.973Z,8.43
2023-05-07T06:41:37.008Z,8.55
2023-05-07T06:44:04.467Z,7.68
2023-05-07T06:46:31.568Z,8.85
2023-05-07T06:48:58.698Z,7.93
2023-05-07T06:51:26.394Z,8.20
2023-05-07T06:53:53.477Z,8.10
2023-05-07T06:56:20.918Z,5.35
2023-05-07T06:58:47.988Z,7.65
2023-05-07T07:01:15.172Z,7.65
2023-05-07T07:03:42.260Z,7.03
2023-05-07T07:06:09.367Z,6.85
2023-05-07T07:08:36.459Z,6.65
2023-05-07T07:11:03.484Z,5.35
2023-05-07T07:13:30.565Z,5.07
2023-05-07T07:15:57.637Z,5.50
2023-05-07T07:18:24.777Z,5.03
2023-05-07T07:20:51.839Z,7.78
2023-05-07T07:23:18.895Z,6.70
2023-05-07T07:25:45.945Z,6.10
2023-05-07T07:28:13.074Z,5.65
2023-05-07T07:30:40.633Z,9.00
2023-05-07T07:33:07.709Z,6.75
2023-05-07T07:35:34.784Z,4.18
2023-05-07T07:38:02.468Z,5.63
2023-05-07T07:40:29.580Z,5.35
2023-05-07T07:42:56.599Z,6.03
2023-05-07T07:45:23.791Z,5.28
2023-05-07T07:47:51.032Z,5.32
2023-05-07T07:50:28.128Z,6.38
2023-05-07T07:53:05.210Z,6.00
2023-05-07T07:55:33.107Z,5.90
2023-05-07T07:58:00.390Z,5.45
2023-05-07T08:00:27.425Z,7.00
2023-05-07T08:02:54.716Z,6.07
2023-05-07T08:05:21.958Z,4.60
2023-05-07T08:07:52.920Z,6.57
2023-05-07T08:10:22.968Z,5.82
2023-05-07T08:12:50.731Z,6.68
2023-05-07T08:15:18.316Z,6.97
2023-05-07T08:17:45.692Z,3.75
2023-05-07T08:20:15.325Z,4.70
2023-05-07T08:22:42.442Z,5.65
2023-05-07T08:25:09.735Z,7.55
2023-05-07T08:27:36.729Z,6.40
2023-05-07T08:30:04.109Z,7.93
2023-05-07T08:32:31.297Z,5.32
2023-05-07T08:34:58.346Z,6.22
2023-05-07T08:37:25.476Z,7.25
2023-05-07T08:39:52.529Z,5.82
2023-05-07T08:42:20.459Z,4.85
2023-05-07T08:44:48.475Z,6.50
2023-05-07T08:47:15.612Z,6.43
2023-05-07T08:49:42.733Z,4.45
2023-05-07T08:52:10.254Z,6.32
2023-05-07T08:54:39.451Z,4.50
2023-05-07T08:57:06.513Z,6.20
2023-05-07T08:59:33.602Z,6.22
2023-05-07T09:02:00.909Z,4.28
2023-05-07T09:04:28.007Z,5.03
2023-05-07T09:06:55.164Z,5.88
2023-05-07T09:09:23.569Z,6.43
2023-05-07T09:11:51.743Z,4.47
2023-05-07T09:14:18.812Z,4.35
2023-05-07T09:16:45.997Z,4.78
2023-05-07T09:19:13.033Z,4.47
2023-05-07T09:21:40.681Z,5.18
2023-05-07T09:24:07.747Z,8.48
2023-05-07T09:26:35.674Z,4.78
2023-05-07T09:29:02.766Z,7.20
2023-05-07T09:31:29.873Z,6.38
2023-05-07T09:33:57.148Z,4.05
2023-05-07T09:36:24.269Z,3.90
2023-05-07T09:38:52.605Z,4.82
2023-05-07T09:41:20.569Z,6.03
2023-05-07T09:43:47.700Z,4.40
2023-05-07T09:46:16.334Z,4.32
2023-05-07T09:48:44.548Z,5.80
2023-05-07T09:51:23.435Z,7.70
2023-05-07T09:53:51.931Z,5.10
2023-05-07T09:56:19.550Z,26.30
2023-05-07T09:58:46.966Z,21.95
2023-05-07T10:01:16.488Z,11.18
2023-05-07T10:03:44.842Z,58.08
2023-05-07T10:06:12.087Z,8.60
2023-05-07T10:08:39.468Z,21.48
2023-05-07T10:11:09.202Z,9.02
2023-05-07T10:13:39.361Z,6.07
2023-05-07T10:16:06.735Z,4.10
2023-05-07T10:18:34.368Z,16.88
2023-05-07T10:21:13.336Z,26.05
2023-05-07T10:23:40.433Z,14.48
2023-05-07T10:26:09.272Z,20.23
2023-05-07T10:28:40.296Z,21.55
2023-05-07T10:31:35.477Z,14.20
2023-05-07T10:34:04.233Z,4.63
2023-05-07T10:36:31.947Z,6.85
2023-05-07T10:38:58.948Z,3.13
2023-05-07T10:41:26.114Z,6.78
2023-05-07T10:43:53.171Z,15.48
2023-05-07T10:46:21.969Z,19.55
2023-05-07T10:49:04.577Z,10.88
2023-05-07T10:51:33.479Z,47.17
2023-05-07T10:54:13.267Z,15.20
2023-05-07T10:56:40.872Z,7.70
2023-05-07T10:59:28.150Z,5.18
2023-05-07T11:01:56.852Z,5.75
2023-05-07T11:04:28.294Z,6.20
2023-05-07T11:07:07.781Z,5.68
2023-05-07T11:09:53.333Z,30.08
2023-05-07T11:12:41.836Z,27.48
2023-05-07T11:15:10.028Z,6.65
2023-05-07T11:17:54.483Z,2.85
2023-05-07T11:20:21.747Z,3.17
2023-05-07T11:22:49.265Z,4.72
2023-05-07T11:25:20.301Z,3.17
2023-05-07T11:27:47.487Z,3.25
2023-05-07T11:30:20.656Z,5.65
2023-05-07T11:32:50.400Z,7.18
2023-05-07T11:35:17.790Z,3.80
2023-05-07T11:37:45.755Z,4.53
2023-05-07T11:40:14.734Z,4.47
2023-05-07T11:42:44.137Z,3.42
2023-05-07T11:45:11.980Z,6.35
2023-05-07T11:47:39.626Z,4.80
2023-05-07T11:50:08.561Z,5.25
2023-05-07T11:52:36.139Z,3.72
2023-05-07T11:55:05.439Z,3.55
2023-05-07T11:57:35.626Z,5.72
2023-05-07T12:00:04.860Z,4.70
2023-05-07T12:02:32.490Z,6.40
2023-05-07T12:05:03.385Z,6.95
2023-05-07T12:07:30.708Z,3.42
2023-05-07T12:09:57.794Z,4.78
2023-05-07T12:12:24.804Z,4.30
2023-05-07T12:14:51.807Z,3.22
2023-05-07T12:17:18.941Z,5.35
2023-05-07T12:19:46.613Z,5.90
2023-05-07T12:22:14.103Z,3.35
2023-05-07T12:24:51.491Z,5.70
2023-05-07T12:27:18.878Z,3.58
2023-05-07T12:29:47.265Z,4.53
2023-05-07T12:32:21.349Z,2.53
2023-05-07T12:34:51.177Z,4.68
2023-05-07T12:37:18.449Z,2.75
2023-05-07T12:40:07.146Z,6.18
2023-05-07T12:42:36.800Z,4.45
2023-05-07T12:45:10.938Z,3.17
2023-05-07T12:47:38.743Z,3.58
2023-05-07T12:50:09.087Z,4.63
2023-05-07T12:52:36.666Z,3.13
2023-05-07T12:55:07.662Z,2.83
2023-05-07T12:57:41.649Z,3.17
2023-05-07T13:00:09.865Z,5.90
2023-05-07T13:02:40.770Z,4.13
2023-05-07T13:05:08.506Z,4.30
2023-05-07T13:07:35.925Z,4.18
2023-05-07T13:10:03.242Z,4.05
2023-05-07T13:12:30.481Z,5.32
2023-05-07T13:14:57.618Z,2.90
2023-05-07T13:17:24.784Z,3.22
2023-05-07T13:19:51.972Z,2.70
2023-05-07T13:22:19.027Z,3.63
2023-05-07T13:24:46.170Z,2.42
2023-05-07T13:27:13.197Z,2.08
2023-05-07T13:29:40.256Z,2.55
2023-05-07T13:32:07.332Z,2.67
2023-05-07T13:34:34.480Z,3.97
2023-05-07T13:37:01.929Z,4.95
2023-05-07T13:39:29.069Z,2.35
2023-05-07T13:41:56.180Z,2.85
2023-05-07T13:44:23.235Z,4.85
2023-05-07T13:46:50.345Z,3.20
2023-05-07T13:49:17.526Z,2.63
2023-05-07T13:51:44.609Z,2.50
2023-05-07T13:54:11.969Z,5.32
2023-05-07T13:56:39.099Z,3.63
2023-05-07T13:59:06.165Z,3.30
2023-05-07T14:01:33.248Z,4.50
2023-05-07T14:04:00.656Z,5.82
2023-05-07T14:06:27.857Z,5.80
2023-05-07T14:08:54.929Z,3.38
2023-05-07T14:11:22.262Z,2.38
2023-05-07T14:13:49.377Z,5.07
2023-05-07T14:16:16.522Z,5.13
2023-05-07T14:18:43.585Z,3.55
2023-05-07T14:21:10.974Z,6.05
2023-05-07T14:23:38.055Z,4.65
2023-05-07T14:26:05.376Z,3.70
2023-05-07T14:28:32.442Z,5.30
2023-05-07T14:30:59.643Z,6.28
2023-05-07T14:33:26.795Z,4.63
2023-05-07T14:35:53.961Z,4.20
2023-05-07T14:38:21.057Z,4.07
2023-05-07T14:40:49.108Z,6.05
2023-05-07T14:43:16.212Z,2.88
2023-05-07T14:45:43.303Z,4.28
2023-05-07T14:48:13.443Z,4.72
2023-05-07T14:50:40.615Z,4.97
2023-05-07T14:53:07.745Z,4.00
2023-05-07T14:55:35.676Z,6.75
2023-05-07T14:58:03.034Z,2.63
2023-05-07T15:00:30.203Z,5.10
2023-05-07T15:03:04.799Z,4.63
2023-05-07T15:05:31.889Z,4.80
2023-05-07T15:07:58.933Z,5.40
2023-05-07T15:10:26.287Z,8.32
2023-05-07T15:12:53.383Z,4.75
2023-05-07T15:15:20.489Z,5.28
2023-05-07T15:17:48.144Z,4.40
2023-05-07T15:20:15.385Z,4.05
2023-05-07T15:22:42.774Z,6.65
2023-05-07T15:25:11.090Z,6.20
2023-05-07T15:27:38.422Z,5.05
2023-05-07T15:30:05.881Z,5.47
2023-05-07T15:32:32.942Z,4.97
2023-05-07T15:34:59.988Z,5.57
2023-05-07T15:37:27.014Z,6.43
2023-05-07T15:39:54.050Z,4.05
2023-05-07T15:42:21.219Z,5.03
2023-05-07T15:44:49.146Z,4.30
2023-05-07T15:47:16.329Z,6.13
2023-05-07T15:49:43.693Z,4.72
2023-05-07T15:52:15.698Z,5.75
2023-05-07T15:54:42.771Z,6.68
2023-05-07T15:57:11.484Z,5.68
2023-05-07T15:59:38.589Z,3.22
2023-05-07T16:02:05.710Z,4.75
2023-05-07T16:04:32.801Z,5.38
2023-05-07T16:06:59.829Z,3.05
2023-05-07T16:09:28.828Z,7.00
2023-05-07T16:11:56.245Z,5.38
2023-05-07T16:14:24.230Z,5.60
2023-05-07T16:16:51.681Z,4.30
2023-05-07T16:19:20.172Z,4.65
2023-05-07T16:21:47.613Z,5.05
2023-05-07T16:24:16.551Z,5.15
2023-05-07T16:26:43.592Z,3.67
2023-05-07T16:29:11.082Z,3.85
2023-05-07T16:31:38.367Z,3.42
2023-05-07T16:34:05.630Z,3.85
2023-05-07T16:36:32.688Z,3.20
2023-05-07T16:38:59.828Z,3.30
2023-05-07T16:41:26.989Z,2.20
2023-05-07T16:43:54.080Z,6.15
2023-05-07T16:46:21.272Z,3.03
2023-05-07T16:48:48.334Z,1.85
2023-05-07T16:51:15.355Z,3.65
2023-05-07T16:53:42.363Z,3.30
2023-05-07T16:56:09.434Z,3.63
2023-05-07T16:58:36.468Z,2.88
2023-05-07T17:01:03.900Z,3.67
2023-05-07T17:03:32.160Z,5.78
2023-05-07T17:05:59.469Z,3.83
2023-05-07T17:08:26.620Z,3.35
2023-05-07T17:10:53.724Z,4.45
2023-05-07T17:13:20.896Z,2.33
2023-05-07T17:15:47.999Z,4.68
2023-05-07T17:18:15.312Z,2.53
2023-05-07T17:20:42.480Z,7.32
2023-05-07T17:23:09.594Z,3.33
2023-05-07T17:25:37.146Z,3.17
2023-05-07T17:28:04.326Z,5.90
2023-05-07T17:30:31.337Z,4.90
2023-05-07T17:33:06.208Z,4.78
2023-05-07T17:35:40.249Z,3.78
2023-05-07T17:38:07.332Z,5.30
2023-05-07T17:40:34.512Z,3.72
2023-05-07T17:43:01.812Z,2.53
2023-05-07T17:45:28.897Z,4.75
2023-05-07T17:47:56.011Z,3.20
2023-05-07T17:50:23.341Z,4.63
2023-05-07T17:52:50.478Z,4.35
2023-05-07T17:55:17.565Z,5.07
2023-05-07T17:57:44.716Z,4.75
2023-05-07T18:00:12.274Z,3.05
2023-05-07T18:02:41.048Z,4.32
2023-05-07T18:05:11.768Z,2.67
2023-05-07T18:07:38.812Z,6.10
2023-05-07T18:10:06.475Z,4.43
2023-05-07T18:12:33.549Z,4.15
2023-05-07T18:15:00.713Z,4.50
2023-05-07T18:17:28.006Z,5.75
2023-05-07T18:19:55.590Z,5.55
2023-05-07T18:22:22.850Z,3.42
2023-05-07T18:24:50.958Z,4.93
2023-05-07T18:27:18.596Z,6.60
2023-05-07T18:29:45.802Z,4.65
2023-05-07T18:32:13.753Z,3.65
2023-05-07T18:34:41.200Z,4.97
2023-05-07T18:37:08.237Z,4.82
2023-05-07T18:39:36.226Z,5.13
2023-05-07T18:42:05.170Z,3.17
2023-05-07T18:44:33.191Z,4.10
2023-05-07T18:47:00.376Z,3.17
2023-05-07T18:49:27.461Z,4.28
2023-05-07T18:51:54.573Z,2.58
2023-05-07T18:54:21.662Z,5.53
2023-05-07T18:56:49.188Z,5.15
2023-05-07T18:59:16.339Z,3.90
2023-05-07T19:01:43.553Z,3.42
2023-05-07T19:04:10.985Z,4.10
2023-05-07T19:06:38.076Z,3.08
2023-05-07T19:09:05.244Z,4.45
2023-05-07T19:11:32.357Z,5.30
2023-05-07T19:14:01.195Z,5.47
2023-05-07T19:16:30.625Z,6.38
2023-05-07T19:18:57.860Z,5.93
2023-05-07T19:21:25.541Z,5.32
2023-05-07T19:23:53.745Z,6.00
2023-05-07T19:26:21.305Z,4.90
2023-05-07T19:29:01.401Z,5.10
2023-05-07T19:31:36.337Z,6.45
2023-05-07T19:34:03.454Z,6.63
2023-05-07T19:36:33.350Z,7.15
2023-05-07T19:39:00.443Z,7.00
2023-05-07T19:41:27.529Z,7.85
2023-05-07T19:43:54.730Z,8.18
2023-05-07T19:46:22.083Z,7.93
2023-05-07T19:48:49.383Z,8.15
2023-05-07T19:51:16.463Z,6.80
2023-05-07T19:53:44.923Z,8.20
2023-05-07T19:56:12.505Z,8.82
2023-05-07T19:58:39.736Z,10.65
2023-05-07T20:01:12.336Z,9.27
2023-05-07T20:03:39.598Z,8.73
2023-05-07T20:06:06.750Z,8.48
2023-05-07T20:08:33.792Z,11.45
2023-05-07T20:11:01.436Z,7.78
2023-05-07T20:13:28.661Z,9.07
2023-05-07T20:15:59.498Z,10.48
2023-05-07T20:18:27.502Z,10.23
2023-05-07T20:20:54.663Z,9.00
2023-05-07T20:23:21.777Z,10.43
2023-05-07T20:25:50.212Z,10.85
2023-05-07T20:28:17.567Z,6.85
2023-05-07T20:30:44.663Z,11.75
2023-05-07T20:33:11.762Z,8.98
2023-05-07T20:35:38.916Z,10.90
2023-05-07T20:38:05.930Z,9.32
2023-05-07T20:40:34.469Z,11.65
2023-05-07T20:43:03.240Z,9.93
2023-05-07T20:45:30.415Z,12.82
2023-05-07T20:47:57.541Z,10.48
2023-05-07T20:50:26.032Z,9.93
2023-05-07T20:52:53.096Z,8.82
2023-05-07T20:55:20.195Z,10.50
2023-05-07T20:57:47.335Z,11.35
2023-05-07T21:00:15.753Z,9.88
2023-05-07T21:02:43.012Z,10.27
2023-05-07T21:05:10.182Z,11.20
2023-05-07T21:07:37.198Z,12.23
2023-05-07T21:10:04.295Z,12.27
2023-05-07T21:12:31.352Z,12.15
2023-05-07T21:14:58.366Z,12.77
2023-05-07T21:17:25.504Z,12.40
2023-05-07T21:19:52.611Z,13.00
2023-05-07T21:22:19.765Z,13.45
2023-05-07T21:24:46.799Z,10.90
2023-05-07T21:27:14.052Z,12.32
2023-05-07T21:29:41.242Z,12.25
2023-05-07T21:32:08.331Z,12.35
2023-05-07T21:34:35.843Z,13.90
2023-05-07T21:37:02.932Z,12.93
2023-05-07T21:39:29.952Z,14.25
2023-05-07T21:41:57.132Z,12.75
2023-05-07T21:44:24.165Z,13.48
2023-05-07T21:46:51.315Z,12.68
2023-05-07T21:49:19.160Z,12.32
2023-05-07T21:51:46.272Z,15.23
2023-05-07T21:54:13.297Z,13.32
2023-05-07T21:56:40.381Z,13.23
2023-05-07T21:59:07.421Z,11.80
2023-05-07T22:01:35.405Z,14.38
2023-05-07T22:04:03.092Z,13.25
2023-05-07T22:06:31.216Z,16.67
2023-05-07T22:08:58.308Z,13.23
2023-05-07T22:11:25.379Z,13.45
2023-05-07T22:13:52.464Z,12.90
2023-05-07T22:16:19.568Z,12.32
2023-05-07T22:18:49.362Z,12.43
2023-05-07T22:21:16.453Z,16.42
2023-05-07T22:23:43.484Z,13.52
2023-05-07T22:26:11.454Z,13.43
2023-05-07T22:28:38.474Z,15.05
2023-05-07T22:31:05.612Z,14.80
2023-05-07T22:33:32.901Z,15.98
2023-05-07T22:35:59.977Z,14.77
2023-05-07T22:38:27.231Z,12.43
2023-05-07T22:40:55.115Z,15.55
2023-05-07T22:43:22.139Z,14.68
2023-05-07T22:45:49.295Z,13.80
2023-05-07T22:48:16.373Z,13.45
2023-05-07T22:50:43.393Z,13.45
2023-05-07T22:53:10.407Z,13.98
2023-05-07T22:55:37.401Z,14.60
2023-05-07T22:58:04.485Z,14.50
2023-05-07T23:00:31.496Z,15.10
2023-05-07T23:02:58.589Z,15.23
2023-05-07T23:05:25.774Z,14.73
2023-05-07T23:07:52.903Z,15.25
2023-05-07T23:10:19.922Z,12.98
2023-05-07T23:12:49.288Z,14.45
2023-05-07T23:15:16.961Z,16.02
2023-05-07T23:17:44.424Z,15.98
2023-05-07T23:20:12.175Z,14.45
2023-05-07T23:22:39.963Z,14.65
2023-05-07T23:25:09.030Z,14.27
2023-05-07T23:27:36.332Z,15.43
2023-05-07T23:30:03.645Z,14.88
2023-05-07T23:32:31.905Z,14.25
2023-05-07T23:34:59.049Z,16.20
2023-05-07T23:37:26.087Z,15.50
2023-05-07T23:39:56.226Z,13.00
2023-05-07T23:42:23.393Z,15.25
2023-05-07T23:44:50.524Z,14.60
2023-05-07T23:47:17.565Z,14.80
2023-05-07T23:49:44.582Z,14.27
2023-05-07T23:52:11.975Z,14.35
2023-05-07T23:54:39.075Z,14.95
2023-05-07T23:57:06.129Z,15.27
2023-05-07T23:59:33.286Z,15.70
